TAF KEFK
KEFK 280531Z 2806/2906 27007KT 5SM -SN OVC024 TEMPO 2806/2807 2SM -SN OVC020 FM280800 26007KT P6SM OVC028 FM281100 25005KT P6SM BKN035 FM281500 VRB03KT P6SM SCT080=
METAR KEFK
WC KEFK
WS KEFK
WV KEFK